Time;durP1;ratioP1;P1;durP2;ratioP2;P2;SDS_P1;SDS_P2;PMS_P1;PMS_P2;Temp;Humidity;BMP_temperature;BMP_pressure;BME280_temperature;BME280_humidity;BME280_pressure;Samples;Min_cycle;Max_cycle;Signal;HPM_P1;HPM_P2
2023/12/12 00:01:11;;;;;;;5.60;3.35;;;;;;;;;;5128726;28;20173;-72
2023/12/12 00:03:38;;;;;;;6.40;3.65;;;;;;;;;;5129222;28;20524;-72
2023/12/12 00:06:06;;;;;;;4.57;3.05;;;;;;;;;;5129256;28;20051;-72
2023/12/12 00:08:33;;;;;;;6.15;3.40;;;;;;;;;;5128629;28;20046;-72
2023/12/12 00:10:59;;;;;;;5.43;3.15;;;;;;;;;;5131597;27;20070;-72
2023/12/12 00:13:26;;;;;;;6.53;3.40;;;;;;;;;;5114268;27;20050;-71
2023/12/12 00:15:53;;;;;;;6.70;3.05;;;;;;;;;;5132333;27;20049;-71
2023/12/12 00:18:20;;;;;;;4.88;3.13;;;;;;;;;;5132199;27;20039;-71
2023/12/12 00:20:50;;;;;;;5.57;3.22;;;;;;;;;;5132121;27;20059;-71
2023/12/12 00:23:16;;;;;;;5.90;3.47;;;;;;;;;;5132135;27;20051;-71
2023/12/12 00:25:43;;;;;;;5.28;3.20;;;;;;;;;;5132142;27;20050;-71
2023/12/12 00:28:10;;;;;;;6.22;3.15;;;;;;;;;;5131915;27;20412;-71
2023/12/12 00:30:36;;;;;;;5.25;2.88;;;;;;;;;;5132363;27;20047;-71
2023/12/12 00:33:03;;;;;;;5.40;3.20;;;;;;;;;;5131953;27;20050;-72
2023/12/12 00:35:30;;;;;;;7.50;3.65;;;;;;;;;;5132192;27;20054;-71
2023/12/12 00:37:57;;;;;;;6.97;3.20;;;;;;;;;;5131594;27;20597;-70
2023/12/12 00:40:23;;;;;;;5.13;3.03;;;;;;;;;;5131744;27;20043;-72
2023/12/12 00:42:50;;;;;;;6.10;3.17;;;;;;;;;;5131771;27;20126;-71
2023/12/12 00:45:16;;;;;;;4.88;3.20;;;;;;;;;;5132540;27;20079;-72
2023/12/12 00:47:45;;;;;;;5.05;2.72;;;;;;;;;;5132190;27;20513;-71
2023/12/12 00:50:12;;;;;;;4.28;2.60;;;;;;;;;;5131833;27;20047;-71
2023/12/12 00:52:40;;;;;;;4.40;2.42;;;;;;;;;;5131626;27;20055;-72
2023/12/12 00:55:06;;;;;;;4.80;2.72;;;;;;;;;;5131151;27;20055;-71
2023/12/12 00:57:33;;;;;;;5.05;2.55;;;;;;;;;;5131529;27;20047;-71
2023/12/12 01:00:00;;;;;;;5.38;2.67;;;;;;;;;;5131720;27;20046;-72
2023/12/12 01:02:27;;;;;;;4.57;2.80;;;;;;;;;;5131679;27;20055;-71
2023/12/12 01:04:53;;;;;;;3.38;2.38;;;;;;;;;;5131585;27;20047;-72
2023/12/12 01:07:20;;;;;;;4.15;2.38;;;;;;;;;;5131589;27;20122;-72
2023/12/12 01:09:47;;;;;;;4.78;2.50;;;;;;;;;;5130845;27;20050;-72
2023/12/12 01:12:14;;;;;;;3.85;2.22;;;;;;;;;;5131172;27;20043;-71
2023/12/12 01:14:40;;;;;;;4.82;2.10;;;;;;;;;;5131035;27;20462;-71
2023/12/12 01:17:07;;;;;;;4.97;2.60;;;;;;;;;;5131243;27;20047;-71
2023/12/12 01:19:34;;;;;;;6.00;2.50;;;;;;;;;;5131166;27;20047;-71
2023/12/12 01:22:00;;;;;;;5.18;2.30;;;;;;;;;;5130343;27;20043;-71
2023/12/12 01:24:29;;;;;;;5.25;2.42;;;;;;;;;;5130500;27;20411;-71
2023/12/12 01:26:56;;;;;;;3.85;2.33;;;;;;;;;;5131055;27;20043;-72
2023/12/12 01:29:23;;;;;;;4.60;2.30;;;;;;;;;;5130900;27;20057;-72
2023/12/12 01:31:49;;;;;;;4.78;2.47;;;;;;;;;;5130917;27;20070;-71
2023/12/12 01:34:18;;;;;;;4.40;2.38;;;;;;;;;;5130895;27;20074;-71
2023/12/12 01:36:45;;;;;;;3.85;2.10;;;;;;;;;;5130727;27;20544;-71
2023/12/12 01:39:12;;;;;;;4.93;2.78;;;;;;;;;;5130503;27;20051;-71
2023/12/12 01:41:39;;;;;;;5.05;2.53;;;;;;;;;;5130762;27;20395;-71
2023/12/12 01:44:05;;;;;;;4.60;2.10;;;;;;;;;;5130687;27;20050;-71
2023/12/12 01:46:34;;;;;;;4.70;2.15;;;;;;;;;;5130785;27;20053;-72
2023/12/12 01:49:01;;;;;;;5.00;2.25;;;;;;;;;;5130284;27;20067;-71
2023/12/12 01:51:28;;;;;;;5.88;2.80;;;;;;;;;;5130433;27;20043;-71
2023/12/12 01:53:55;;;;;;;4.85;2.85;;;;;;;;;;5130474;27;20043;-70
2023/12/12 01:56:25;;;;;;;4.10;2.28;;;;;;;;;;5130410;27;20043;-71
2023/12/12 01:58:56;;;;;;;3.88;2.38;;;;;;;;;;5129956;27;20055;-71
2023/12/12 02:01:27;;;;;;;3.70;2.50;;;;;;;;;;5130830;27;20062;-71
2023/12/12 02:03:56;;;;;;;4.40;2.63;;;;;;;;;;5130289;27;20093;-73
2023/12/12 02:06:28;;;;;;;7.03;3.17;;;;;;;;;;5130128;27;20092;-71
2023/12/12 02:08:55;;;;;;;6.32;3.10;;;;;;;;;;5129204;27;20076;-71
2023/12/12 02:11:21;;;;;;;6.13;3.25;;;;;;;;;;5130232;27;20046;-71
2023/12/12 02:13:48;;;;;;;5.00;2.95;;;;;;;;;;5130380;27;20043;-71
2023/12/12 02:16:16;;;;;;;5.43;2.97;;;;;;;;;;5120621;27;20048;-71
2023/12/12 02:18:43;;;;;;;6.32;3.40;;;;;;;;;;5119414;27;20047;-71
2023/12/12 02:21:15;;;;;;;5.53;2.88;;;;;;;;;;5119364;27;20510;-71
2023/12/12 02:23:42;;;;;;;7.28;2.75;;;;;;;;;;5117513;27;20051;-71
2023/12/12 02:26:09;;;;;;;5.30;2.78;;;;;;;;;;5119025;27;20047;-72
2023/12/12 02:28:35;;;;;;;4.32;2.63;;;;;;;;;;5119785;27;20043;-71
2023/12/12 02:31:02;;;;;;;4.95;3.00;;;;;;;;;;5118538;27;20042;-71
2023/12/12 02:33:29;;;;;;;5.18;2.97;;;;;;;;;;5118326;27;20472;-71
2023/12/12 02:35:56;;;;;;;5.85;3.10;;;;;;;;;;5119703;27;20562;-71
2023/12/12 02:38:22;;;;;;;4.38;2.90;;;;;;;;;;5118132;27;20044;-72
2023/12/12 02:40:49;;;;;;;5.97;3.55;;;;;;;;;;5118101;27;20047;-72
2023/12/12 02:43:16;;;;;;;7.43;4.13;;;;;;;;;;5120024;27;20074;-71
2023/12/12 02:45:43;;;;;;;6.88;3.60;;;;;;;;;;5114071;27;20043;-71
2023/12/12 02:48:11;;;;;;;5.93;3.42;;;;;;;;;;5108973;28;20051;-71
2023/12/12 02:50:38;;;;;;;6.95;3.30;;;;;;;;;;5108417;28;20048;-71
2023/12/12 02:53:04;;;;;;;5.80;3.47;;;;;;;;;;5109042;28;20040;-71
2023/12/12 02:55:31;;;;;;;7.53;4.10;;;;;;;;;;5108415;28;20048;-72
2023/12/12 02:57:58;;;;;;;6.20;3.58;;;;;;;;;;5108803;28;20598;-71
2023/12/12 03:00:24;;;;;;;8.30;4.50;;;;;;;;;;5108442;28;20047;-71
2023/12/12 03:02:51;;;;;;;6.82;4.20;;;;;;;;;;5108276;28;20492;-71
2023/12/12 03:05:18;;;;;;;9.10;4.15;;;;;;;;;;5108424;28;20048;-71
2023/12/12 03:07:45;;;;;;;7.47;3.83;;;;;;;;;;5108946;28;20135;-74
2023/12/12 03:10:11;;;;;;;5.95;3.55;;;;;;;;;;5108170;28;20043;-72
2023/12/12 03:12:38;;;;;;;6.60;3.97;;;;;;;;;;5115059;28;20040;-72
2023/12/12 03:15:05;;;;;;;5.45;3.22;;;;;;;;;;5118456;27;20726;-71
2023/12/12 03:17:32;;;;;;;6.15;3.90;;;;;;;;;;5119332;28;20050;-71
2023/12/12 03:19:59;;;;;;;5.30;3.22;;;;;;;;;;5117046;28;20056;-71
2023/12/12 03:22:26;;;;;;;6.22;3.63;;;;;;;;;;5118437;28;20051;-72
2023/12/12 03:24:52;;;;;;;5.90;3.22;;;;;;;;;;5118488;28;20139;-71
2023/12/12 03:27:19;;;;;;;5.72;3.25;;;;;;;;;;5117112;28;20039;-71
2023/12/12 03:29:45;;;;;;;6.13;3.40;;;;;;;;;;5118101;28;20043;-70
2023/12/12 03:32:12;;;;;;;7.30;3.58;;;;;;;;;;5119414;28;20035;-72
2023/12/12 03:34:39;;;;;;;4.57;2.97;;;;;;;;;;5116901;28;20055;-71
2023/12/12 03:37:05;;;;;;;5.40;3.67;;;;;;;;;;5118272;28;20506;-72
2023/12/12 03:39:32;;;;;;;5.78;2.55;;;;;;;;;;5118408;28;20051;-71
2023/12/12 03:42:02;;;;;;;6.93;3.35;;;;;;;;;;5116675;27;20043;-70
2023/12/12 03:44:32;;;;;;;5.70;3.55;;;;;;;;;;5129349;27;20047;-73
2023/12/12 03:47:02;;;;;;;7.43;3.30;;;;;;;;;;5133157;27;20047;-71
2023/12/12 03:49:28;;;;;;;6.85;3.88;;;;;;;;;;5132742;27;20096;-71
2023/12/12 03:51:58;;;;;;;6.15;3.40;;;;;;;;;;5133211;27;20043;-70
2023/12/12 03:54:25;;;;;;;7.50;3.78;;;;;;;;;;5132652;27;20039;-71
2023/12/12 03:56:52;;;;;;;6.07;3.65;;;;;;;;;;5132694;27;20043;-71
2023/12/12 03:59:19;;;;;;;6.00;3.42;;;;;;;;;;5132714;27;20146;-71
2023/12/12 04:01:49;;;;;;;5.13;3.03;;;;;;;;;;5132510;27;20498;-71
2023/12/12 04:04:19;;;;;;;8.90;2.92;;;;;;;;;;5133083;27;20059;-74
2023/12/12 04:06:46;;;;;;;5.03;3.13;;;;;;;;;;5132576;27;20392;-71
2023/12/12 04:09:14;;;;;;;6.05;3.15;;;;;;;;;;5132305;27;20043;-71
2023/12/12 04:11:40;;;;;;;4.82;2.90;;;;;;;;;;5132406;27;20419;-71
2023/12/12 04:14:07;;;;;;;5.88;3.30;;;;;;;;;;5132395;27;20713;-71
2023/12/12 04:16:34;;;;;;;5.88;2.90;;;;;;;;;;5132441;27;20205;-72
2023/12/12 04:19:03;;;;;;;5.95;3.28;;;;;;;;;;5132369;27;20054;-71
2023/12/12 04:21:33;;;;;;;4.47;2.88;;;;;;;;;;5132215;27;20040;-74
2023/12/12 04:24:00;;;;;;;5.50;3.08;;;;;;;;;;5132171;27;20050;-71
2023/12/12 04:26:30;;;;;;;4.47;2.80;;;;;;;;;;5132372;27;20067;-72
2023/12/12 04:28:59;;;;;;;4.22;2.97;;;;;;;;;;5132486;27;20043;-71
2023/12/12 04:31:26;;;;;;;4.82;2.88;;;;;;;;;;5127996;27;20396;-71
2023/12/12 04:33:52;;;;;;;5.57;2.88;;;;;;;;;;5120843;27;20043;-71
2023/12/12 04:36:20;;;;;;;5.35;3.20;;;;;;;;;;5120322;27;20043;-71
2023/12/12 04:38:47;;;;;;;6.25;2.80;;;;;;;;;;5122026;27;20043;-71
2023/12/12 04:41:14;;;;;;;4.53;2.53;;;;;;;;;;5120877;27;20052;-73
2023/12/12 04:43:41;;;;;;;4.63;2.90;;;;;;;;;;5120383;27;20499;-71
2023/12/12 04:46:07;;;;;;;3.80;2.63;;;;;;;;;;5122031;27;20522;-71
2023/12/12 04:48:35;;;;;;;5.28;3.08;;;;;;;;;;5121148;27;20055;-70
2023/12/12 04:51:05;;;;;;;5.25;3.00;;;;;;;;;;5119762;27;20039;-71
2023/12/12 04:53:32;;;;;;;5.90;2.88;;;;;;;;;;5120292;27;20040;-71
2023/12/12 04:56:00;;;;;;;4.55;2.70;;;;;;;;;;5119865;27;20647;-71
2023/12/12 04:58:27;;;;;;;4.47;2.60;;;;;;;;;;5121763;27;20435;-71
2023/12/12 05:00:54;;;;;;;5.57;3.03;;;;;;;;;;5120689;27;20048;-73
2023/12/12 05:03:21;;;;;;;4.75;2.88;;;;;;;;;;5101941;27;20096;-71
2023/12/12 05:05:48;;;;;;;5.82;2.65;;;;;;;;;;5121567;27;20047;-71
2023/12/12 05:08:15;;;;;;;5.53;3.30;;;;;;;;;;5119905;27;20120;-71
2023/12/12 05:10:42;;;;;;;5.95;3.30;;;;;;;;;;5119306;27;20039;-71
2023/12/12 05:13:08;;;;;;;4.43;2.83;;;;;;;;;;5119334;27;20044;-71
2023/12/12 05:15:35;;;;;;;4.78;2.72;;;;;;;;;;5120447;27;20048;-71
2023/12/12 05:18:02;;;;;;;4.68;2.83;;;;;;;;;;5121378;27;20122;-70
2023/12/12 05:20:29;;;;;;;6.40;3.13;;;;;;;;;;5121183;27;20051;-72
2023/12/12 05:22:56;;;;;;;5.40;3.03;;;;;;;;;;5128731;27;20047;-72
2023/12/12 05:25:23;;;;;;;5.40;2.92;;;;;;;;;;5131219;27;20057;-71
2023/12/12 05:27:52;;;;;;;6.40;3.28;;;;;;;;;;5130876;27;20054;-71
2023/12/12 05:30:18;;;;;;;5.32;2.88;;;;;;;;;;5130827;27;20046;-71
2023/12/12 05:32:45;;;;;;;5.10;3.00;;;;;;;;;;5130695;27;20494;-72
2023/12/12 05:35:13;;;;;;;5.47;2.58;;;;;;;;;;5131015;27;20050;-71
2023/12/12 05:37:39;;;;;;;3.67;2.65;;;;;;;;;;5130670;27;20043;-71
2023/12/12 05:40:07;;;;;;;6.47;2.88;;;;;;;;;;5130664;27;20058;-71
2023/12/12 05:42:33;;;;;;;5.10;2.50;;;;;;;;;;5130685;27;20055;-71
2023/12/12 05:45:00;;;;;;;4.72;2.95;;;;;;;;;;5130741;27;20103;-71
2023/12/12 05:47:27;;;;;;;5.07;2.88;;;;;;;;;;5130155;27;20039;-73
2023/12/12 05:49:54;;;;;;;4.60;2.70;;;;;;;;;;5130523;27;20050;-72
2023/12/12 05:52:21;;;;;;;5.65;2.90;;;;;;;;;;5130142;27;20047;-71
2023/12/12 05:54:47;;;;;;;5.07;2.97;;;;;;;;;;5131689;27;20708;-70
2023/12/12 05:57:14;;;;;;;4.95;2.75;;;;;;;;;;5130296;27;20054;-71
2023/12/12 05:59:41;;;;;;;6.00;2.97;;;;;;;;;;5130592;27;20046;-70
2023/12/12 06:02:08;;;;;;;6.15;3.47;;;;;;;;;;5129768;27;20054;-71
2023/12/12 06:04:38;;;;;;;6.28;3.70;;;;;;;;;;5129909;27;20546;-71
2023/12/12 06:07:05;;;;;;;6.38;3.67;;;;;;;;;;5129564;27;20070;-71
2023/12/12 06:09:32;;;;;;;7.25;4.00;;;;;;;;;;5129580;27;20051;-70
2023/12/12 06:12:01;;;;;;;6.68;3.53;;;;;;;;;;5130046;27;20078;-74
2023/12/12 06:14:27;;;;;;;5.90;3.50;;;;;;;;;;5130432;27;20060;-73
2023/12/12 06:16:54;;;;;;;6.05;3.20;;;;;;;;;;5129798;27;20051;-73
2023/12/12 06:19:21;;;;;;;5.25;3.28;;;;;;;;;;5130114;27;20047;-73
2023/12/12 06:21:52;;;;;;;7.05;3.70;;;;;;;;;;5129606;27;20085;-73
2023/12/12 06:24:19;;;;;;;5.38;3.38;;;;;;;;;;5129265;27;20051;-72
2023/12/12 06:26:46;;;;;;;7.47;3.40;;;;;;;;;;5129919;27;20043;-73
2023/12/12 06:29:13;;;;;;;5.65;2.95;;;;;;;;;;5130109;27;20049;-71
2023/12/12 06:31:39;;;;;;;5.80;3.25;;;;;;;;;;5129689;27;20043;-73
2023/12/12 06:34:09;;;;;;;4.38;3.13;;;;;;;;;;5130017;27;20122;-73
2023/12/12 06:36:42;;;;;;;5.78;3.20;;;;;;;;;;5129878;27;20046;-73
2023/12/12 06:39:10;;;;;;;5.70;3.15;;;;;;;;;;5129438;27;20047;-71
2023/12/12 06:41:37;;;;;;;5.35;3.08;;;;;;;;;;5128995;27;20079;-73
2023/12/12 06:44:04;;;;;;;5.57;3.30;;;;;;;;;;5129617;27;20138;-73
2023/12/12 06:46:31;;;;;;;5.53;2.83;;;;;;;;;;5129344;27;20414;-72
2023/12/12 06:48:58;;;;;;;4.43;2.97;;;;;;;;;;5129425;27;20533;-73
2023/12/12 06:51:30;;;;;;;4.70;3.05;;;;;;;;;;5112037;27;20094;-73
2023/12/12 06:53:58;;;;;;;4.82;2.97;;;;;;;;;;5129283;27;20051;-72
2023/12/12 06:56:26;;;;;;;3.92;2.67;;;;;;;;;;5129408;27;20081;-71
2023/12/12 06:58:52;;;;;;;6.43;2.95;;;;;;;;;;5129385;27;20047;-73
2023/12/12 07:01:19;;;;;;;6.45;2.85;;;;;;;;;;5129113;27;20042;-73
2023/12/12 07:03:46;;;;;;;4.80;2.88;;;;;;;;;;5129288;27;20055;-73
2023/12/12 07:06:13;;;;;;;4.82;2.58;;;;;;;;;;5129486;27;20049;-73
2023/12/12 07:08:39;;;;;;;4.90;2.67;;;;;;;;;;5128725;27;20039;-73
2023/12/12 07:11:08;;;;;;;5.15;2.80;;;;;;;;;;5131163;27;20095;-72
2023/12/12 07:13:35;;;;;;;5.65;3.13;;;;;;;;;;5129139;27;20435;-71
2023/12/12 07:16:02;;;;;;;4.82;2.88;;;;;;;;;;5129147;28;20047;-72
2023/12/12 07:18:29;;;;;;;4.35;2.80;;;;;;;;;;5130821;27;20043;-71
2023/12/12 07:20:57;;;;;;;4.20;2.80;;;;;;;;;;5132054;27;20449;-71
2023/12/12 07:23:25;;;;;;;4.95;2.90;;;;;;;;;;5132921;27;20051;-72
2023/12/12 07:25:51;;;;;;;3.92;2.50;;;;;;;;;;5114541;27;20483;-71
2023/12/12 07:28:18;;;;;;;3.63;2.33;;;;;;;;;;5133080;27;20399;-73
2023/12/12 07:30:45;;;;;;;4.38;2.47;;;;;;;;;;5133217;27;20533;-72
2023/12/12 07:33:12;;;;;;;6.25;3.20;;;;;;;;;;5133333;27;20048;-73
2023/12/12 07:35:39;;;;;;;4.90;3.00;;;;;;;;;;5133199;27;20082;-72
2023/12/12 07:38:06;;;;;;;5.75;3.60;;;;;;;;;;5133122;27;20058;-73
2023/12/12 07:40:33;;;;;;;6.28;3.05;;;;;;;;;;5132623;27;20050;-73
2023/12/12 07:42:59;;;;;;;5.32;3.00;;;;;;;;;;5132623;27;20427;-74
2023/12/12 07:45:26;;;;;;;6.65;2.80;;;;;;;;;;5133256;27;20043;-72
2023/12/12 07:47:53;;;;;;;4.75;2.70;;;;;;;;;;5135033;27;20542;-73
2023/12/12 07:50:20;;;;;;;4.18;2.58;;;;;;;;;;5137605;27;20075;-74
2023/12/12 07:52:48;;;;;;;4.18;2.42;;;;;;;;;;5142946;27;20227;-72
2023/12/12 07:55:15;;;;;;;3.05;2.13;;;;;;;;;;5136620;27;20053;-72
2023/12/12 07:57:42;;;;;;;5.25;2.10;;;;;;;;;;5139921;27;20467;-73
2023/12/12 08:00:10;;;;;;;2.97;1.85;;;;;;;;;;5137126;27;20043;-73
2023/12/12 08:02:37;;;;;;;4.82;2.38;;;;;;;;;;5141249;27;20092;-73
2023/12/12 08:05:06;;;;;;;2.17;1.58;;;;;;;;;;5139581;27;20039;-73
2023/12/12 08:07:32;;;;;;;2.30;1.58;;;;;;;;;;5143780;27;20151;-74
2023/12/12 08:10:00;;;;;;;2.95;1.80;;;;;;;;;;5143596;27;20043;-72
2023/12/12 08:12:26;;;;;;;5.03;2.13;;;;;;;;;;5143570;27;20062;-73
2023/12/12 08:14:53;;;;;;;2.70;1.80;;;;;;;;;;5144083;27;20310;-72
2023/12/12 08:17:20;;;;;;;2.50;1.80;;;;;;;;;;5144486;27;20106;-72
2023/12/12 08:19:47;;;;;;;3.33;2.03;;;;;;;;;;5144384;27;20043;-74
2023/12/12 08:22:14;;;;;;;4.50;1.98;;;;;;;;;;5144244;27;20057;-73
2023/12/12 08:24:45;;;;;;;3.00;1.75;;;;;;;;;;5143503;27;20047;-72
2023/12/12 08:27:18;;;;;;;3.65;2.03;;;;;;;;;;5114898;27;20130;-72
2023/12/12 08:29:47;;;;;;;2.30;1.58;;;;;;;;;;5131932;27;20151;-72
2023/12/12 08:32:14;;;;;;;3.10;1.77;;;;;;;;;;5123383;27;20050;-73
2023/12/12 08:34:44;;;;;;;2.97;1.92;;;;;;;;;;5115847;28;20559;-73
2023/12/12 08:37:16;;;;;;;3.95;2.15;;;;;;;;;;5110092;28;20542;-73
2023/12/12 08:39:43;;;;;;;2.45;1.73;;;;;;;;;;5112826;28;20050;-73
2023/12/12 08:42:10;;;;;;;3.05;1.98;;;;;;;;;;5110849;28;20133;-73
2023/12/12 08:44:37;;;;;;;3.30;2.13;;;;;;;;;;5110356;28;20073;-74
2023/12/12 08:47:04;;;;;;;3.67;2.40;;;;;;;;;;5111304;28;20108;-73
2023/12/12 08:49:33;;;;;;;2.78;1.90;;;;;;;;;;5112569;28;20319;-72
2023/12/12 08:52:02;;;;;;;5.00;1.80;;;;;;;;;;5112067;28;20074;-73
2023/12/12 08:54:29;;;;;;;3.28;1.95;;;;;;;;;;5110456;28;20491;-72
2023/12/12 08:56:56;;;;;;;4.93;2.03;;;;;;;;;;5093246;28;20071;-73
2023/12/12 08:59:22;;;;;;;3.08;1.88;;;;;;;;;;5111419;28;20050;-72
2023/12/12 09:01:49;;;;;;;2.85;1.83;;;;;;;;;;5111863;28;20048;-72
2023/12/12 09:04:16;;;;;;;2.97;1.85;;;;;;;;;;5110735;28;20418;-72
2023/12/12 09:06:46;;;;;;;3.05;1.92;;;;;;;;;;5111025;28;20112;-72
2023/12/12 09:09:15;;;;;;;2.60;1.73;;;;;;;;;;5110401;28;20052;-72
2023/12/12 09:11:45;;;;;;;3.08;2.00;;;;;;;;;;5111727;28;20126;-73
2023/12/12 09:14:12;;;;;;;4.53;2.33;;;;;;;;;;5110633;27;20762;-73
2023/12/12 09:16:39;;;;;;;4.28;2.00;;;;;;;;;;5110819;28;20044;-72
2023/12/12 09:19:06;;;;;;;2.67;1.92;;;;;;;;;;5110280;28;20453;-72
2023/12/12 09:21:33;;;;;;;4.15;2.05;;;;;;;;;;5110814;28;20066;-72
2023/12/12 09:24:00;;;;;;;5.22;2.00;;;;;;;;;;5109605;28;20047;-73
2023/12/12 09:26:26;;;;;;;5.60;2.10;;;;;;;;;;5110615;28;20044;-72
2023/12/12 09:28:53;;;;;;;2.95;1.77;;;;;;;;;;5110782;28;20052;-72
2023/12/12 09:31:26;;;;;;;6.60;2.15;;;;;;;;;;5092011;28;20522;-70
2023/12/12 09:33:54;;;;;;;2.85;1.90;;;;;;;;;;5110191;28;20634;-69
2023/12/12 09:36:21;;;;;;;3.03;1.92;;;;;;;;;;5110627;28;20054;-70
2023/12/12 09:38:48;;;;;;;2.92;1.88;;;;;;;;;;5110078;28;20044;-70
2023/12/12 09:41:22;;;;;;;2.80;1.70;;;;;;;;;;5110115;28;20050;-70
2023/12/12 09:43:50;;;;;;;3.00;2.00;;;;;;;;;;5109252;28;20051;-70
2023/12/12 09:46:18;;;;;;;3.70;1.60;;;;;;;;;;5109854;28;20055;-71
2023/12/12 09:48:46;;;;;;;4.18;1.90;;;;;;;;;;5110202;28;20039;-71
2023/12/12 09:51:17;;;;;;;3.22;1.80;;;;;;;;;;5109784;28;20147;-69
2023/12/12 09:53:47;;;;;;;2.58;1.63;;;;;;;;;;5109579;28;20036;-70
2023/12/12 09:56:16;;;;;;;3.28;1.60;;;;;;;;;;5110086;28;20051;-70
2023/12/12 09:58:45;;;;;;;3.47;1.90;;;;;;;;;;5110066;28;20158;-71
2023/12/12 10:01:13;;;;;;;5.28;1.90;;;;;;;;;;5110023;28;20043;-72
2023/12/12 10:03:40;;;;;;;4.13;2.03;;;;;;;;;;5109611;28;20499;-72
2023/12/12 10:06:09;;;;;;;2.75;1.70;;;;;;;;;;5109647;28;20559;-73
2023/12/12 10:08:36;;;;;;;3.33;1.90;;;;;;;;;;5109197;28;20040;-73
2023/12/12 10:11:06;;;;;;;2.55;1.65;;;;;;;;;;5109703;28;20534;-72
2023/12/12 10:13:50;;;;;;;2.80;1.80;;;;;;;;;;5092072;28;20051;-72
2023/12/12 10:16:17;;;;;;;3.22;1.63;;;;;;;;;;5109761;28;20073;-71
2023/12/12 10:18:46;;;;;;;2.08;1.50;;;;;;;;;;5109828;28;20048;-71
2023/12/12 10:21:19;;;;;;;2.90;1.75;;;;;;;;;;5109432;28;20055;-70
2023/12/12 10:23:51;;;;;;;4.25;1.90;;;;;;;;;;5108752;28;20458;-72
2023/12/12 10:26:26;;;;;;;3.28;1.85;;;;;;;;;;5109278;28;20052;-71
2023/12/12 10:28:54;;;;;;;3.20;1.70;;;;;;;;;;5091487;28;20048;-72
2023/12/12 10:31:22;;;;;;;4.35;2.03;;;;;;;;;;5109226;28;20554;-72
2023/12/12 10:33:50;;;;;;;5.40;1.95;;;;;;;;;;5114267;27;20047;-71
2023/12/12 10:36:17;;;;;;;3.25;1.80;;;;;;;;;;5117466;27;20049;-71
2023/12/12 10:38:44;;;;;;;3.63;2.00;;;;;;;;;;5119460;27;20039;-71
2023/12/12 10:41:21;;;;;;;3.67;2.05;;;;;;;;;;5118925;27;20593;-71
2023/12/12 10:43:53;;;;;;;4.25;1.80;;;;;;;;;;5119667;27;20134;-70
2023/12/12 10:46:20;;;;;;;4.18;2.33;;;;;;;;;;5119174;27;20131;-71
2023/12/12 10:48:48;;;;;;;5.57;2.20;;;;;;;;;;5124475;27;20036;-71
2023/12/12 10:51:17;;;;;;;3.33;1.77;;;;;;;;;;5118084;27;20047;-71
2023/12/12 10:53:46;;;;;;;5.25;2.50;;;;;;;;;;5128723;27;20083;-71
2023/12/12 10:56:14;;;;;;;5.72;3.03;;;;;;;;;;5128758;27;20039;-71
2023/12/12 10:58:44;;;;;;;5.65;2.80;;;;;;;;;;5126777;27;20042;-71
2023/12/12 11:01:15;;;;;;;5.25;3.20;;;;;;;;;;5118151;27;20065;-72
2023/12/12 11:03:43;;;;;;;6.28;2.85;;;;;;;;;;5114404;27;20047;-73
2023/12/12 11:06:10;;;;;;;7.45;2.80;;;;;;;;;;5124992;27;20051;-73
2023/12/12 11:08:37;;;;;;;6.97;2.85;;;;;;;;;;5104160;28;20570;-71
2023/12/12 11:11:09;;;;;;;5.72;2.97;;;;;;;;;;5119576;27;20084;-72
2023/12/12 11:13:38;;;;;;;5.97;2.55;;;;;;;;;;5120439;28;20044;-72
2023/12/12 11:16:07;;;;;;;4.53;2.58;;;;;;;;;;5122842;28;20057;-72
2023/12/12 11:18:39;;;;;;;3.55;2.22;;;;;;;;;;5125867;28;20054;-72
2023/12/12 11:21:06;;;;;;;6.65;2.15;;;;;;;;;;5120129;28;20048;-71
2023/12/12 11:23:46;;;;;;;6.10;2.20;;;;;;;;;;5119997;28;20069;-72
2023/12/12 11:26:16;;;;;;;4.10;2.20;;;;;;;;;;5134333;28;20107;-71
2023/12/12 11:28:43;;;;;;;4.07;2.13;;;;;;;;;;5140999;28;20085;-71
2023/12/12 11:31:10;;;;;;;4.30;2.13;;;;;;;;;;5136284;28;20303;-73
2023/12/12 11:34:03;;;;;;;5.78;2.88;;;;;;;;;;5140847;27;20111;-71
2023/12/12 11:36:51;;;;;;;4.50;2.40;;;;;;;;;;5106090;28;20062;-72
2023/12/12 11:39:30;;;;;;;4.10;2.20;;;;;;;;;;5115706;28;20043;-71
2023/12/12 11:41:58;;;;;;;3.92;2.22;;;;;;;;;;5119146;28;20063;-73
2023/12/12 11:44:39;;;;;;;3.97;2.10;;;;;;;;;;5105620;28;20464;-71
2023/12/12 11:47:09;;;;;;;;;;;;;;;;;;5110945;28;66755;-70
2023/12/12 11:49:36;;;;;;;4.57;2.10;;;;;;;;;;5084891;28;19923;-72
2023/12/12 11:52:03;;;;;;;4.95;2.20;;;;;;;;;;5072401;28;20197;-73
2023/12/12 11:54:29;;;;;;;8.25;2.40;;;;;;;;;;5072165;28;20076;-72
2023/12/12 11:57:00;;;;;;;4.25;2.30;;;;;;;;;;5079365;28;20543;-71
2023/12/12 11:59:28;;;;;;;6.32;2.45;;;;;;;;;;5070813;28;20048;-74
2023/12/12 12:01:55;;;;;;;5.78;2.50;;;;;;;;;;5071630;28;20128;-70
2023/12/12 12:04:22;;;;;;;4.20;2.42;;;;;;;;;;5078110;28;20104;-73
2023/12/12 12:06:53;;;;;;;4.22;1.80;;;;;;;;;;5070095;28;20532;-73
2023/12/12 12:09:19;;;;;;;5.05;2.17;;;;;;;;;;5079624;28;20048;-72
2023/12/12 12:11:49;;;;;;;4.75;2.30;;;;;;;;;;5091800;28;20052;-73
2023/12/12 12:14:22;;;;;;;5.13;2.50;;;;;;;;;;5091829;28;20048;-74
2023/12/12 12:16:58;;;;;;;3.67;2.17;;;;;;;;;;5091910;28;20040;-72
2023/12/12 12:19:29;;;;;;;4.57;2.40;;;;;;;;;;5091738;28;20044;-73
2023/12/12 12:22:04;;;;;;;3.30;2.15;;;;;;;;;;5091577;28;20479;-71
2023/12/12 12:24:32;;;;;;;6.43;2.45;;;;;;;;;;5069274;28;20072;-73
2023/12/12 12:26:59;;;;;;;6.25;2.83;;;;;;;;;;5071301;28;20049;-70
2023/12/12 12:29:26;;;;;;;5.57;2.55;;;;;;;;;;5071102;28;20059;-73
2023/12/12 12:31:53;;;;;;;5.47;2.72;;;;;;;;;;5052849;28;20053;-73
2023/12/12 12:34:24;;;;;;;3.70;2.38;;;;;;;;;;5051439;28;20098;-71
2023/12/12 12:36:52;;;;;;;6.38;2.67;;;;;;;;;;5050965;28;20049;-72
2023/12/12 12:39:21;;;;;;;3.53;2.10;;;;;;;;;;5050877;28;20513;-71
2023/12/12 12:41:53;;;;;;;3.90;2.25;;;;;;;;;;5076713;28;20040;-73
2023/12/12 12:44:20;;;;;;;5.38;2.30;;;;;;;;;;5080147;28;20079;-70
2023/12/12 12:46:49;;;;;;;6.60;2.40;;;;;;;;;;5081181;28;20120;-70
2023/12/12 12:49:17;;;;;;;5.40;2.40;;;;;;;;;;5081728;28;20308;-70
2023/12/12 12:51:47;;;;;;;5.38;2.78;;;;;;;;;;5073933;28;20045;-70
2023/12/12 12:54:17;;;;;;;7.75;2.70;;;;;;;;;;5069907;28;20124;-72
2023/12/12 12:56:47;;;;;;;5.85;2.20;;;;;;;;;;5069611;28;20045;-72
2023/12/12 12:59:18;;;;;;;5.43;2.20;;;;;;;;;;5071326;28;20512;-73
2023/12/12 13:01:45;;;;;;;4.13;2.30;;;;;;;;;;5070457;28;20047;-70
2023/12/12 13:04:12;;;;;;;5.90;2.60;;;;;;;;;;5069877;28;21079;-70
2023/12/12 13:06:40;;;;;;;4.65;1.90;;;;;;;;;;5068862;28;20071;-70
2023/12/12 13:09:10;;;;;;;4.00;1.98;;;;;;;;;;5071290;28;20044;-70
2023/12/12 13:11:39;;;;;;;5.07;1.43;;;;;;;;;;5076809;28;20086;-70
2023/12/12 13:14:06;;;;;;;3.85;1.42;;;;;;;;;;5075136;28;20693;-70
2023/12/12 13:16:33;;;;;;;5.13;1.75;;;;;;;;;;5071459;28;20044;-70
2023/12/12 13:19:00;;;;;;;5.20;1.73;;;;;;;;;;5070137;28;20479;-70
2023/12/12 13:21:28;;;;;;;4.57;1.35;;;;;;;;;;5074216;28;20748;-72
2023/12/12 13:23:54;;;;;;;5.00;1.50;;;;;;;;;;5079639;28;20116;-70
2023/12/12 13:26:24;;;;;;;2.75;1.35;;;;;;;;;;5090313;28;20044;-70
2023/12/12 13:28:52;;;;;;;6.22;1.90;;;;;;;;;;5090202;28;20040;-70
2023/12/12 13:31:23;;;;;;;2.70;1.30;;;;;;;;;;5090173;28;20083;-70
2023/12/12 13:33:52;;;;;;;3.28;1.20;;;;;;;;;;5090058;28;20432;-72
2023/12/12 13:36:20;;;;;;;3.42;1.75;;;;;;;;;;5090291;28;20059;-70
2023/12/12 13:38:46;;;;;;;4.80;1.58;;;;;;;;;;5089829;28;20085;-70
2023/12/12 13:41:14;;;;;;;2.92;1.20;;;;;;;;;;5089823;28;20051;-70
2023/12/12 13:43:42;;;;;;;3.17;1.17;;;;;;;;;;5090095;28;20127;-73
2023/12/12 13:46:09;;;;;;;1.83;1.13;;;;;;;;;;5089252;28;20040;-70
2023/12/12 13:48:36;;;;;;;3.00;1.10;;;;;;;;;;5089351;28;20079;-70
2023/12/12 13:51:03;;;;;;;2.55;1.27;;;;;;;;;;5092198;28;20098;-70
2023/12/12 13:53:36;;;;;;;3.30;1.30;;;;;;;;;;5089724;28;20090;-70
2023/12/12 13:56:03;;;;;;;3.13;1.20;;;;;;;;;;5074311;28;20475;-70
2023/12/12 13:58:30;;;;;;;3.75;1.45;;;;;;;;;;5076078;28;20151;-70
2023/12/12 14:00:59;;;;;;;4.28;1.30;;;;;;;;;;5076063;28;20046;-70
2023/12/12 14:03:27;;;;;;;3.92;1.42;;;;;;;;;;5079912;28;20044;-72
2023/12/12 14:05:54;;;;;;;2.45;1.20;;;;;;;;;;5071917;28;20049;-72
2023/12/12 14:08:21;;;;;;;3.47;1.35;;;;;;;;;;5085651;28;20047;-70
2023/12/12 14:10:47;;;;;;;4.20;1.60;;;;;;;;;;5100712;28;20043;-70
2023/12/12 14:13:14;;;;;;;3.83;1.30;;;;;;;;;;5098708;28;20083;-72
2023/12/12 14:15:41;;;;;;;3.85;1.50;;;;;;;;;;5099286;28;20044;-72
2023/12/12 14:18:07;;;;;;;3.45;1.60;;;;;;;;;;5095384;28;20063;-70
2023/12/12 14:20:34;;;;;;;4.38;1.55;;;;;;;;;;5088500;28;20524;-72
2023/12/12 14:23:02;;;;;;;2.63;1.45;;;;;;;;;;5096760;28;20898;-71
2023/12/12 14:25:37;;;;;;;3.03;1.30;;;;;;;;;;5088885;28;20055;-73
2023/12/12 14:28:05;;;;;;;2.00;1.00;;;;;;;;;;5087096;28;20559;-72
2023/12/12 14:30:32;;;;;;;1.63;1.10;;;;;;;;;;5081635;28;20041;-72
2023/12/12 14:32:58;;;;;;;3.88;1.10;;;;;;;;;;5084760;28;20040;-72
2023/12/12 14:35:26;;;;;;;2.00;0.93;;;;;;;;;;5086953;28;20140;-72
2023/12/12 14:37:53;;;;;;;2.45;0.65;;;;;;;;;;5088483;28;20119;-73
2023/12/12 14:40:20;;;;;;;2.28;0.80;;;;;;;;;;5086904;28;20044;-73
2023/12/12 14:42:50;;;;;;;2.15;1.00;;;;;;;;;;5088362;28;20036;-72
2023/12/12 14:45:17;;;;;;;1.65;0.80;;;;;;;;;;5086782;28;20686;-72
2023/12/12 14:47:43;;;;;;;1.27;0.80;;;;;;;;;;5087042;28;20082;-72